createdAt,value
2023-03-27T00:00:48.667Z,23.05
2023-03-27T00:02:53.706Z,23.05
2023-03-27T00:04:58.970Z,23.03
2023-03-27T00:07:04.044Z,23.02
2023-03-27T00:09:09.123Z,23.02
2023-03-27T00:11:14.102Z,23.01
2023-03-27T00:13:19.095Z,23.01
2023-03-27T00:15:24.122Z,23.01
2023-03-27T00:17:29.102Z,23.01
2023-03-27T00:19:34.167Z,23
2023-03-27T00:21:39.191Z,22.97
2023-03-27T00:23:44.315Z,22.98
2023-03-27T00:25:49.305Z,22.97
2023-03-27T00:27:54.396Z,22.98
2023-03-27T00:29:59.371Z,22.97
2023-03-27T00:32:04.469Z,22.96
2023-03-27T00:34:09.412Z,22.97
2023-03-27T00:36:14.424Z,22.96
2023-03-27T00:38:19.457Z,22.96
2023-03-27T00:40:24.430Z,22.94
2023-03-27T00:42:29.423Z,22.92
2023-03-27T00:44:34.462Z,22.92
2023-03-27T00:46:42.516Z,22.92
2023-03-27T00:48:47.643Z,22.93
2023-03-27T00:50:52.643Z,22.93
2023-03-27T00:52:58.243Z,22.93
2023-03-27T00:55:03.222Z,22.93
2023-03-27T00:57:08.280Z,22.92
2023-03-27T00:59:13.456Z,22.9
2023-03-27T01:01:18.508Z,22.89
2023-03-27T01:03:23.754Z,22.9
2023-03-27T01:05:29.075Z,22.9
2023-03-27T01:07:34.051Z,22.88
2023-03-27T01:09:39.142Z,22.89
2023-03-27T01:11:44.168Z,22.87
2023-03-27T01:13:49.149Z,22.85
2023-03-27T01:15:54.098Z,22.84
2023-03-27T01:17:59.237Z,22.83
2023-03-27T01:20:04.323Z,22.82
2023-03-27T01:22:09.302Z,22.8
2023-03-27T01:24:14.408Z,22.81
2023-03-27T01:26:19.526Z,22.8
2023-03-27T01:28:41.166Z,22.8
2023-03-27T01:30:46.139Z,22.8
2023-03-27T01:32:51.188Z,22.8
2023-03-27T01:35:01.360Z,22.8
2023-03-27T01:37:08.746Z,22.79
2023-03-27T01:39:13.747Z,22.79
2023-03-27T01:41:18.732Z,22.79
2023-03-27T01:43:23.738Z,22.77
2023-03-27T01:45:28.749Z,22.75
2023-03-27T01:47:33.760Z,22.74
2023-03-27T01:49:38.990Z,22.74
2023-03-27T01:51:43.953Z,22.73
2023-03-27T01:53:49.070Z,22.73
2023-03-27T01:55:54.064Z,22.73
2023-03-27T01:57:59.163Z,22.72
2023-03-27T02:00:17.793Z,22.73
2023-03-27T02:02:24.223Z,22.7
2023-03-27T02:04:29.386Z,22.69
2023-03-27T02:06:34.538Z,22.67
2023-03-27T02:08:39.555Z,22.68
2023-03-27T02:10:44.589Z,22.68
2023-03-27T02:12:49.580Z,22.67
2023-03-27T02:14:54.558Z,22.67
2023-03-27T02:17:25.152Z,22.68
2023-03-27T02:19:30.460Z,22.65
2023-03-27T02:21:35.435Z,22.65
2023-03-27T02:23:40.489Z,22.65
2023-03-27T02:25:45.535Z,22.65
2023-03-27T02:27:50.556Z,22.63
2023-03-27T02:29:55.515Z,22.63
2023-03-27T02:32:00.474Z,22.61
2023-03-27T02:34:05.651Z,22.61
2023-03-27T02:36:11.203Z,22.6
2023-03-27T02:38:16.582Z,22.58
2023-03-27T02:40:21.573Z,22.59
2023-03-27T02:42:26.595Z,22.59
2023-03-27T02:44:31.569Z,22.58
2023-03-27T02:46:36.538Z,22.55
2023-03-27T02:48:41.572Z,22.55
2023-03-27T02:50:46.546Z,22.54
2023-03-27T02:52:51.517Z,22.54
2023-03-27T02:54:56.501Z,22.54
2023-03-27T02:57:01.480Z,22.53
2023-03-27T02:59:06.642Z,22.5
2023-03-27T03:01:11.658Z,22.51
2023-03-27T03:03:16.874Z,22.5
2023-03-27T03:05:22.294Z,22.48
2023-03-27T03:07:27.351Z,22.46
2023-03-27T03:09:32.320Z,22.45
2023-03-27T03:11:44.149Z,22.44
2023-03-27T03:13:49.216Z,22.43
2023-03-27T03:15:54.220Z,22.43
2023-03-27T03:17:59.280Z,22.43
2023-03-27T03:20:04.408Z,22.4
2023-03-27T03:22:09.389Z,22.39
2023-03-27T03:24:14.362Z,22.36
2023-03-27T03:26:19.343Z,22.31
2023-03-27T03:28:24.392Z,22.32
2023-03-27T03:30:29.390Z,22.3
2023-03-27T03:32:34.523Z,22.29
2023-03-27T03:34:39.550Z,22.27
2023-03-27T03:38:02.310Z,22.27
2023-03-27T03:40:07.389Z,22.26
2023-03-27T03:42:22.494Z,22.23
2023-03-27T03:44:28.341Z,22.2
2023-03-27T03:46:33.407Z,22.2
2023-03-27T03:48:38.588Z,22.2
2023-03-27T03:50:43.552Z,22.18
2023-03-27T03:52:48.537Z,22.14
2023-03-27T03:54:53.591Z,22.14
2023-03-27T03:56:58.554Z,22.12
2023-03-27T03:59:04.129Z,22.11
2023-03-27T04:01:09.191Z,22.08
2023-03-27T04:03:14.213Z,22.07
2023-03-27T04:05:19.681Z,22.05
2023-03-27T04:07:24.784Z,22.03
2023-03-27T04:09:29.762Z,22.03
2023-03-27T04:11:34.713Z,21.98
2023-03-27T04:13:39.742Z,21.98
2023-03-27T04:15:44.746Z,21.95
2023-03-27T04:17:50.239Z,21.95
2023-03-27T04:19:55.448Z,21.9
2023-03-27T04:22:00.395Z,21.93
2023-03-27T04:24:05.377Z,21.9
2023-03-27T04:26:10.342Z,21.9
2023-03-27T04:28:15.493Z,21.88
2023-03-27T04:30:20.558Z,21.85
2023-03-27T04:32:25.672Z,21.82
2023-03-27T04:34:30.769Z,21.81
2023-03-27T04:36:35.812Z,21.8
2023-03-27T04:38:40.893Z,21.78
2023-03-27T04:40:45.881Z,21.76
2023-03-27T04:42:50.892Z,21.73
2023-03-27T04:44:55.928Z,21.74
2023-03-27T04:47:00.926Z,21.72
2023-03-27T04:49:06.278Z,21.71
2023-03-27T04:51:11.354Z,21.7
2023-03-27T04:53:16.472Z,21.69
2023-03-27T04:55:21.455Z,21.68
2023-03-27T04:57:26.436Z,21.67
2023-03-27T04:59:31.450Z,21.66
2023-03-27T05:01:36.511Z,21.66
2023-03-27T05:03:41.835Z,21.65
2023-03-27T05:05:46.960Z,21.66
2023-03-27T05:07:51.975Z,21.64
2023-03-27T05:09:57.006Z,21.62
2023-03-27T05:12:02.039Z,21.6
2023-03-27T05:14:07.011Z,21.6
2023-03-27T05:16:12.114Z,21.58
2023-03-27T05:18:17.432Z,21.6
2023-03-27T05:20:22.433Z,21.59
2023-03-27T05:22:27.640Z,21.69
2023-03-27T05:24:32.662Z,21.82
2023-03-27T05:26:38.529Z,21.95
2023-03-27T05:28:43.728Z,22.07
2023-03-27T05:30:48.810Z,22.2
2023-03-27T05:32:53.999Z,22.29
2023-03-27T05:34:59.123Z,22.36
2023-03-27T05:37:04.161Z,22.43
2023-03-27T05:39:09.314Z,22.51
2023-03-27T05:41:14.459Z,22.57
2023-03-27T05:43:19.457Z,22.67
2023-03-27T05:45:24.562Z,22.74
2023-03-27T05:47:29.647Z,22.8
2023-03-27T05:49:34.809Z,22.89
2023-03-27T05:51:39.900Z,22.96
2023-03-27T05:53:51.983Z,23.02
2023-03-27T05:56:02.525Z,23.06
2023-03-27T05:58:08.449Z,23.07
2023-03-27T06:00:13.459Z,23.06
2023-03-27T06:02:20.640Z,23.08
2023-03-27T06:04:26.657Z,23.1
2023-03-27T06:06:31.689Z,23.14
2023-03-27T06:08:39.086Z,23.2
2023-03-27T06:10:44.112Z,23.22
2023-03-27T06:12:49.207Z,23.23
2023-03-27T06:14:54.434Z,23.22
2023-03-27T06:16:59.461Z,23.23
2023-03-27T06:19:04.501Z,23.24
2023-03-27T06:21:09.584Z,23.26
2023-03-27T06:23:14.651Z,23.26
2023-03-27T06:25:19.791Z,23.27
2023-03-27T06:27:24.800Z,23.29
2023-03-27T06:29:29.873Z,23.28
2023-03-27T06:31:34.878Z,23.31
2023-03-27T06:33:40.203Z,23.29
2023-03-27T06:35:45.329Z,23.26
2023-03-27T06:37:58.393Z,23.24
2023-03-27T06:40:03.420Z,23.22
2023-03-27T06:42:08.530Z,23.21
2023-03-27T06:44:13.618Z,23.2
2023-03-27T06:46:18.892Z,23.2
2023-03-27T06:48:24.707Z,23.2
2023-03-27T06:50:29.965Z,23.19
2023-03-27T06:52:34.953Z,23.19
2023-03-27T06:54:39.941Z,23.19
2023-03-27T06:56:44.946Z,23.2
2023-03-27T06:58:49.924Z,23.21
2023-03-27T07:00:54.936Z,23.22
2023-03-27T07:03:00.023Z,23.22
2023-03-27T07:05:05.667Z,23.24
2023-03-27T07:07:11.114Z,23.25
2023-03-27T07:09:16.209Z,23.24
2023-03-27T07:11:21.264Z,23.25
2023-03-27T07:13:26.330Z,23.25
2023-03-27T07:15:31.365Z,23.26
2023-03-27T07:17:47.852Z,23.26
2023-03-27T07:19:53.951Z,23.26
2023-03-27T07:21:59.124Z,23.27
2023-03-27T07:24:04.186Z,23.27
2023-03-27T07:26:09.208Z,23.26
2023-03-27T07:28:14.300Z,23.27
2023-03-27T07:30:19.345Z,23.27
2023-03-27T07:32:34.314Z,23.26
2023-03-27T07:34:42.282Z,23.28
2023-03-27T07:36:47.358Z,23.3
2023-03-27T07:38:52.348Z,23.31
2023-03-27T07:40:57.874Z,23.31
2023-03-27T07:43:02.862Z,23.32
2023-03-27T07:45:07.846Z,23.33
2023-03-27T07:47:12.917Z,23.33
2023-03-27T07:49:17.910Z,23.34
2023-03-27T07:51:41.903Z,23.34
2023-03-27T07:53:46.912Z,23.34
2023-03-27T07:55:51.916Z,23.35
2023-03-27T07:58:02.155Z,23.36
2023-03-27T08:00:08.202Z,23.35
2023-03-27T08:02:13.288Z,23.34
2023-03-27T08:04:18.381Z,23.33
2023-03-27T08:06:23.977Z,23.34
2023-03-27T08:08:29.020Z,23.34
2023-03-27T08:10:34.110Z,23.35
2023-03-27T08:12:39.146Z,23.34
2023-03-27T08:14:44.183Z,23.35
2023-03-27T08:16:49.600Z,23.35
2023-03-27T08:18:54.935Z,23.34
2023-03-27T08:21:00.072Z,23.37
2023-03-27T08:23:05.214Z,23.36
2023-03-27T08:25:10.255Z,23.36
2023-03-27T08:27:15.590Z,23.35
2023-03-27T08:29:20.641Z,23.37
2023-03-27T08:31:25.881Z,23.38
2023-03-27T08:33:31.146Z,23.39
2023-03-27T08:35:36.323Z,23.41
2023-03-27T08:37:41.621Z,23.42
2023-03-27T08:39:46.718Z,23.44
2023-03-27T08:41:52.017Z,23.44
2023-03-27T08:43:57.031Z,23.44
2023-03-27T08:46:02.174Z,23.44
2023-03-27T08:48:07.456Z,23.44
2023-03-27T08:50:12.712Z,23.46
2023-03-27T08:52:17.750Z,23.47
2023-03-27T08:54:22.782Z,23.48
2023-03-27T08:56:27.790Z,23.49
2023-03-27T08:58:32.798Z,23.48
2023-03-27T09:00:37.834Z,23.5
2023-03-27T09:02:42.874Z,23.51
2023-03-27T09:04:48.375Z,23.53
2023-03-27T09:06:53.372Z,23.52
2023-03-27T09:08:58.354Z,23.53
2023-03-27T09:11:03.393Z,23.55
2023-03-27T09:13:08.930Z,23.56
2023-03-27T09:15:14.358Z,23.56
2023-03-27T09:17:19.391Z,23.57
2023-03-27T09:19:24.370Z,23.58
2023-03-27T09:21:29.404Z,23.58
2023-03-27T09:23:34.421Z,23.57
2023-03-27T09:25:39.415Z,23.59
2023-03-27T09:27:44.428Z,23.6
2023-03-27T09:29:49.495Z,23.62
2023-03-27T09:32:09.578Z,23.62
2023-03-27T09:34:14.726Z,23.63
2023-03-27T09:36:19.740Z,23.62
2023-03-27T09:38:24.878Z,23.61
2023-03-27T09:40:29.947Z,23.61
2023-03-27T09:42:34.981Z,23.62
2023-03-27T09:44:40.085Z,23.62
2023-03-27T09:46:45.180Z,23.63
2023-03-27T09:48:50.319Z,23.64
2023-03-27T09:50:55.461Z,23.66
2023-03-27T09:53:01.334Z,23.67
2023-03-27T09:55:06.320Z,23.69
2023-03-27T09:57:11.427Z,23.7
2023-03-27T09:59:16.799Z,23.71
2023-03-27T10:01:21.884Z,23.69
2023-03-27T10:03:27.154Z,23.71
2023-03-27T10:05:32.575Z,23.72
2023-03-27T10:07:37.673Z,23.72
2023-03-27T10:09:42.753Z,23.71
2023-03-27T10:11:47.762Z,23.74
2023-03-27T10:13:52.814Z,23.73
2023-03-27T10:15:57.843Z,23.74
2023-03-27T10:18:02.906Z,23.72
2023-03-27T10:20:08.030Z,23.73
2023-03-27T10:22:14.349Z,23.74
2023-03-27T10:24:19.684Z,23.75
2023-03-27T10:26:24.700Z,23.78
2023-03-27T10:28:29.821Z,23.79
2023-03-27T10:30:34.808Z,23.81
2023-03-27T10:32:39.894Z,23.82
2023-03-27T10:34:45.070Z,23.83
2023-03-27T10:36:50.157Z,23.84
2023-03-27T10:38:55.227Z,23.86
2023-03-27T10:41:00.169Z,23.85
2023-03-27T10:43:05.249Z,23.87
2023-03-27T10:45:10.597Z,23.87
2023-03-27T10:47:15.712Z,23.88
2023-03-27T10:49:20.701Z,23.89
2023-03-27T10:51:30.727Z,23.88
2023-03-27T10:53:50.756Z,23.91
2023-03-27T10:55:56.117Z,23.9
2023-03-27T10:58:01.281Z,23.92
2023-03-27T11:00:06.352Z,23.92
2023-03-27T11:02:11.346Z,23.93
2023-03-27T11:04:16.380Z,23.93
2023-03-27T11:06:21.505Z,23.94
2023-03-27T11:08:26.511Z,23.96
2023-03-27T11:10:31.505Z,23.96
2023-03-27T11:12:36.502Z,23.94
2023-03-27T11:14:41.618Z,23.93
2023-03-27T11:16:46.610Z,23.92
2023-03-27T11:18:52.328Z,23.91
2023-03-27T11:20:57.490Z,23.92
2023-03-27T11:23:02.801Z,23.93
2023-03-27T11:25:07.855Z,23.93
2023-03-27T11:27:14.485Z,23.93
2023-03-27T11:29:19.802Z,23.96
2023-03-27T11:31:24.864Z,23.97
2023-03-27T11:33:32.394Z,23.98
2023-03-27T11:35:37.574Z,23.98
2023-03-27T11:37:42.827Z,23.99
2023-03-27T11:39:47.860Z,23.98
2023-03-27T11:41:52.943Z,23.97
2023-03-27T11:43:57.985Z,23.97
2023-03-27T11:46:03.041Z,23.96
2023-03-27T11:48:10.787Z,23.98
2023-03-27T11:50:16.180Z,23.98
2023-03-27T11:52:21.286Z,23.95
2023-03-27T11:54:26.684Z,23.95
2023-03-27T11:56:31.741Z,23.97
2023-03-27T11:58:36.791Z,23.98
2023-03-27T12:00:41.795Z,23.96
2023-03-27T12:02:47.079Z,23.95
2023-03-27T12:04:52.578Z,23.95
2023-03-27T12:07:01.748Z,23.95
2023-03-27T12:09:14.375Z,23.96
2023-03-27T12:11:19.406Z,23.99
2023-03-27T12:13:31.868Z,24.01
2023-03-27T12:15:50.440Z,23.99
2023-03-27T12:17:55.513Z,23.98
2023-03-27T12:20:00.901Z,23.93
2023-03-27T12:22:14.524Z,23.95
2023-03-27T12:24:28.625Z,23.97
2023-03-27T12:26:33.609Z,23.96
2023-03-27T12:28:40.116Z,23.95
2023-03-27T12:30:46.026Z,23.95
2023-03-27T12:32:51.673Z,23.96
2023-03-27T12:35:02.736Z,23.96
2023-03-27T12:37:07.724Z,23.99
2023-03-27T12:39:12.916Z,23.98
2023-03-27T12:41:17.923Z,24
2023-03-27T12:43:22.970Z,24.01
2023-03-27T12:45:28.078Z,24.05
2023-03-27T12:47:34.488Z,24.09
2023-03-27T12:49:46.802Z,24.1
2023-03-27T12:51:52.504Z,24.12
2023-03-27T12:53:57.947Z,24.12
2023-03-27T12:56:03.021Z,24.13
2023-03-27T12:58:08.206Z,24.13
2023-03-27T13:00:13.722Z,24.12
2023-03-27T13:02:18.815Z,24.11
2023-03-27T13:04:24.146Z,24.11
2023-03-27T13:06:29.383Z,24.12
2023-03-27T13:08:34.400Z,24.15
2023-03-27T13:10:39.446Z,24.15
2023-03-27T13:12:45.243Z,24.13
2023-03-27T13:14:50.362Z,24.1
2023-03-27T13:16:55.441Z,24.08
2023-03-27T13:19:00.439Z,24.07
2023-03-27T13:21:05.606Z,24.06
2023-03-27T13:23:10.622Z,24.03
2023-03-27T13:25:15.719Z,23.98
2023-03-27T13:27:20.819Z,23.97
2023-03-27T13:29:25.882Z,23.98
2023-03-27T13:31:30.944Z,23.96
2023-03-27T13:33:36.239Z,23.95
2023-03-27T13:35:41.341Z,23.94
2023-03-27T13:37:46.614Z,23.94
2023-03-27T13:39:51.654Z,23.92
2023-03-27T13:41:56.664Z,23.91
2023-03-27T13:44:05.130Z,23.92
2023-03-27T13:46:10.178Z,23.91
2023-03-27T13:48:15.297Z,23.9
2023-03-27T13:50:20.372Z,23.92
2023-03-27T13:52:25.368Z,23.94
2023-03-27T13:54:30.369Z,23.94
2023-03-27T13:56:35.421Z,23.98
2023-03-27T13:58:40.550Z,24.03
2023-03-27T14:00:45.862Z,24.03
2023-03-27T14:02:50.941Z,24.03
2023-03-27T14:04:56.280Z,24.04
2023-03-27T14:07:01.392Z,24.06
2023-03-27T14:09:06.441Z,24.08
2023-03-27T14:11:11.498Z,24.08
2023-03-27T14:13:16.548Z,24.1
2023-03-27T14:15:21.716Z,24.13
2023-03-27T14:17:26.840Z,24.15
2023-03-27T14:19:32.091Z,24.16
2023-03-27T14:21:38.953Z,24.16
2023-03-27T14:23:44.168Z,24.16
2023-03-27T14:25:49.329Z,24.17
2023-03-27T14:27:54.361Z,24.16
2023-03-27T14:29:59.354Z,24.16
2023-03-27T14:32:04.533Z,24.17
2023-03-27T14:34:10.065Z,24.19
2023-03-27T14:36:15.097Z,24.18
2023-03-27T14:38:20.172Z,24.2
2023-03-27T14:40:25.141Z,24.22
2023-03-27T14:42:32.739Z,24.23
2023-03-27T14:44:38.295Z,24.17
2023-03-27T14:46:43.336Z,24.18
2023-03-27T14:48:48.344Z,24.2
2023-03-27T14:50:53.416Z,24.22
2023-03-27T14:52:59.226Z,24.25
2023-03-27T14:55:04.270Z,24.28
2023-03-27T14:57:09.466Z,24.28
2023-03-27T14:59:14.642Z,24.36
2023-03-27T15:01:19.797Z,24.39
2023-03-27T15:03:25.067Z,24.44
2023-03-27T15:05:30.588Z,24.48
2023-03-27T15:07:35.732Z,24.51
2023-03-27T15:09:40.824Z,24.54
2023-03-27T15:11:45.896Z,24.55
2023-03-27T15:13:50.908Z,24.55
2023-03-27T15:15:56.099Z,24.58
2023-03-27T15:18:02.037Z,24.59
2023-03-27T15:20:07.288Z,24.59
2023-03-27T15:22:12.427Z,24.65
2023-03-27T15:24:17.503Z,24.66
2023-03-27T15:26:22.765Z,24.66
2023-03-27T15:28:27.842Z,24.65
2023-03-27T15:30:32.806Z,24.63
2023-03-27T15:32:38.076Z,24.61
2023-03-27T15:34:43.305Z,24.57
2023-03-27T15:36:48.315Z,24.53
2023-03-27T15:38:53.329Z,24.51
2023-03-27T15:40:58.347Z,24.5
2023-03-27T15:43:03.486Z,24.44
2023-03-27T15:45:08.477Z,24.48
2023-03-27T15:47:13.468Z,24.46
2023-03-27T15:49:18.484Z,24.47
2023-03-27T15:51:23.678Z,24.45
2023-03-27T15:53:28.707Z,24.52
2023-03-27T15:55:33.670Z,24.54
2023-03-27T15:57:38.794Z,24.58
2023-03-27T15:59:51.418Z,24.56
2023-03-27T16:01:58.213Z,24.49
2023-03-27T16:04:04.914Z,24.37
2023-03-27T16:06:10.452Z,24.3
2023-03-27T16:08:15.487Z,24.19
2023-03-27T16:10:20.559Z,24.08
2023-03-27T16:12:25.521Z,24.02
2023-03-27T16:14:30.630Z,23.93
2023-03-27T16:16:35.726Z,23.94
2023-03-27T16:18:41.028Z,23.94
2023-03-27T16:20:46.087Z,23.92
2023-03-27T16:22:51.144Z,23.86
2023-03-27T16:24:56.203Z,23.81
2023-03-27T16:27:01.302Z,23.76
2023-03-27T16:29:06.311Z,23.71
2023-03-27T16:31:11.381Z,23.7
2023-03-27T16:33:16.860Z,23.68
2023-03-27T16:35:22.178Z,23.64
2023-03-27T16:37:27.414Z,23.6
2023-03-27T16:39:32.398Z,23.52
2023-03-27T16:41:37.436Z,23.49
2023-03-27T16:43:43.433Z,23.44
2023-03-27T16:45:48.609Z,23.4
2023-03-27T16:47:53.826Z,23.36
2023-03-27T16:50:10.675Z,23.34
2023-03-27T16:52:16.517Z,23.3
2023-03-27T16:54:21.660Z,23.28
2023-03-27T16:56:26.687Z,23.24
2023-03-27T16:58:31.732Z,23.22
2023-03-27T17:00:36.767Z,23.19
2023-03-27T17:02:41.804Z,23.12
2023-03-27T17:04:47.409Z,23.13
2023-03-27T17:06:52.753Z,23.24
2023-03-27T17:08:57.744Z,23.37
2023-03-27T17:11:02.763Z,23.48
2023-03-27T17:13:07.909Z,23.59
2023-03-27T17:15:12.883Z,23.67
2023-03-27T17:17:18.281Z,23.72
2023-03-27T17:19:23.296Z,23.76
2023-03-27T17:21:28.224Z,23.81
2023-03-27T17:23:33.208Z,23.86
2023-03-27T17:25:38.126Z,23.95
2023-03-27T17:27:43.113Z,24
2023-03-27T17:29:48.218Z,24.03
2023-03-27T17:31:53.207Z,24.08
2023-03-27T17:33:58.279Z,24.14
2023-03-27T17:36:03.350Z,24.16
2023-03-27T17:38:08.481Z,24.18
2023-03-27T17:40:13.558Z,24.2
2023-03-27T17:42:18.652Z,24.21
2023-03-27T17:44:23.612Z,24.24
2023-03-27T17:46:28.816Z,24.24
2023-03-27T17:48:34.150Z,24.27
2023-03-27T17:50:39.265Z,24.3
2023-03-27T17:52:44.307Z,24.3
2023-03-27T17:54:49.441Z,24.31
2023-03-27T17:56:54.470Z,24.32
2023-03-27T17:58:59.631Z,24.32
2023-03-27T18:01:04.759Z,24.32
2023-03-27T18:03:09.802Z,24.33
2023-03-27T18:05:15.921Z,24.34
2023-03-27T18:07:21.160Z,24.38
2023-03-27T18:09:26.234Z,24.39
2023-03-27T18:11:32.687Z,24.4
2023-03-27T18:13:37.745Z,24.39
2023-03-27T18:15:42.865Z,24.43
2023-03-27T18:17:48.093Z,24.47
2023-03-27T18:19:53.285Z,24.49
2023-03-27T18:21:58.296Z,24.52
2023-03-27T18:24:03.320Z,24.59
2023-03-27T18:26:08.419Z,24.62
2023-03-27T18:28:13.600Z,24.64
2023-03-27T18:30:18.604Z,24.69
2023-03-27T18:32:23.688Z,24.74
2023-03-27T18:34:28.957Z,24.76
2023-03-27T18:36:34.206Z,24.79
2023-03-27T18:38:39.465Z,24.82
2023-03-27T18:40:44.982Z,24.79
2023-03-27T18:42:50.145Z,24.76
2023-03-27T18:44:55.540Z,24.73
2023-03-27T18:47:00.585Z,24.75
2023-03-27T18:49:13.893Z,24.73
2023-03-27T18:51:29.159Z,24.73
2023-03-27T18:53:34.168Z,24.7
2023-03-27T18:55:39.339Z,24.64
2023-03-27T18:57:44.419Z,24.57
2023-03-27T18:59:49.423Z,24.57
2023-03-27T19:01:54.634Z,24.6
2023-03-27T19:03:59.843Z,24.58
2023-03-27T19:06:04.962Z,24.51
2023-03-27T19:08:09.962Z,24.48
2023-03-27T19:10:15.063Z,24.42
2023-03-27T19:12:20.141Z,24.38
2023-03-27T19:14:25.193Z,24.39
2023-03-27T19:16:30.322Z,24.4
2023-03-27T19:18:35.564Z,24.44
2023-03-27T19:20:40.683Z,24.48
2023-03-27T19:22:45.794Z,24.51
2023-03-27T19:24:50.799Z,24.56
2023-03-27T19:26:55.843Z,24.59
2023-03-27T19:29:00.896Z,24.66
2023-03-27T19:31:05.977Z,24.69
2023-03-27T19:33:11.530Z,24.73
2023-03-27T19:35:16.597Z,24.71
2023-03-27T19:37:21.662Z,24.57
2023-03-27T19:39:26.736Z,24.53
2023-03-27T19:41:31.898Z,24.52
2023-03-27T19:43:36.960Z,24.55
2023-03-27T19:45:42.048Z,24.6
2023-03-27T19:47:47.203Z,24.64
2023-03-27T19:49:52.507Z,24.64
2023-03-27T19:51:57.738Z,24.52
2023-03-27T19:54:02.782Z,24.38
2023-03-27T19:56:07.847Z,24.24
2023-03-27T19:58:12.922Z,24.11
2023-03-27T20:00:18.088Z,24
2023-03-27T20:02:23.189Z,23.91
2023-03-27T20:04:28.562Z,23.84
2023-03-27T20:06:33.769Z,23.77
2023-03-27T20:08:38.856Z,23.7
2023-03-27T20:10:43.985Z,23.64
2023-03-27T20:12:49.198Z,23.61
2023-03-27T20:15:07.389Z,23.52
2023-03-27T20:19:32.116Z,23.42
2023-03-27T20:21:37.234Z,23.05
2023-03-27T20:23:42.364Z,22.97
2023-03-27T20:25:47.509Z,22.9
2023-03-27T20:27:52.566Z,22.89
2023-03-27T20:29:57.618Z,22.55
2023-03-27T20:32:02.669Z,22.61
2023-03-27T20:34:11.454Z,22.79
2023-03-27T20:36:16.705Z,22.98
2023-03-27T20:38:21.926Z,23.16
2023-03-27T20:40:26.993Z,23.32
2023-03-27T20:42:39.679Z,23.45
2023-03-27T20:44:44.723Z,23.57
2023-03-27T20:46:49.932Z,23.68
2023-03-27T20:48:59.532Z,23.76
2023-03-27T20:51:04.589Z,23.82
2023-03-27T20:53:09.707Z,23.88
2023-03-27T20:55:20.044Z,23.93
2023-03-27T20:57:42.204Z,24
2023-03-27T20:59:47.700Z,24.03
2023-03-27T21:01:52.983Z,24.08
2023-03-27T21:03:58.599Z,24.11
2023-03-27T21:06:03.896Z,24.13
2023-03-27T21:08:08.953Z,24.16
2023-03-27T21:10:13.989Z,24.18
2023-03-27T21:12:19.057Z,24.2
2023-03-27T21:14:24.086Z,24.23
2023-03-27T21:16:29.232Z,24.26
2023-03-27T21:18:34.578Z,24.27
2023-03-27T21:20:39.675Z,24.3
2023-03-27T21:22:44.711Z,24.31
2023-03-27T21:24:49.806Z,24.33
2023-03-27T21:26:54.835Z,24.34
2023-03-27T21:28:59.933Z,24.34
2023-03-27T21:31:05.120Z,24.34
2023-03-27T21:33:10.195Z,24.36
2023-03-27T21:35:15.302Z,24.36
2023-03-27T21:37:20.423Z,24.39
2023-03-27T21:39:25.513Z,24.41
2023-03-27T21:41:30.676Z,24.42
2023-03-27T21:43:35.760Z,24.42
2023-03-27T21:45:40.794Z,24.42
2023-03-27T21:47:47.732Z,24.43
2023-03-27T21:49:53.058Z,24.44
2023-03-27T21:51:58.089Z,24.43
2023-03-27T21:54:03.090Z,24.41
2023-03-27T21:56:08.096Z,24.41
2023-03-27T21:58:13.129Z,24.41
2023-03-27T22:00:18.139Z,24.42
2023-03-27T22:02:23.182Z,24.4
2023-03-27T22:04:28.459Z,24.38
2023-03-27T22:06:33.600Z,24.38
2023-03-27T22:08:38.609Z,24.4
2023-03-27T22:10:43.848Z,24.4
2023-03-27T22:12:48.885Z,24.42
2023-03-27T22:14:53.903Z,24.44
2023-03-27T22:16:59.169Z,24.46
2023-03-27T22:19:04.130Z,24.46
2023-03-27T22:21:09.169Z,24.48
2023-03-27T22:23:14.182Z,24.47
2023-03-27T22:25:19.232Z,24.47
2023-03-27T22:27:24.251Z,24.47
2023-03-27T22:29:29.348Z,24.47
2023-03-27T22:31:34.379Z,24.49
2023-03-27T22:33:39.555Z,24.49
2023-03-27T22:35:44.616Z,24.5
2023-03-27T22:37:49.742Z,24.5
2023-03-27T22:39:54.747Z,24.5
2023-03-27T22:41:59.774Z,24.49
2023-03-27T22:44:04.911Z,24.49
2023-03-27T22:46:09.928Z,24.48
2023-03-27T22:48:15.108Z,24.5
2023-03-27T22:50:20.241Z,24.55
2023-03-27T22:52:25.278Z,24.61
2023-03-27T22:54:30.323Z,24.68
2023-03-27T22:56:35.361Z,24.75
2023-03-27T22:58:40.453Z,24.82
2023-03-27T23:00:45.519Z,24.86
2023-03-27T23:02:50.598Z,24.9
2023-03-27T23:04:55.943Z,24.95
2023-03-27T23:07:00.937Z,24.96
2023-03-27T23:09:06.007Z,24.89
2023-03-27T23:11:11.020Z,24.76
2023-03-27T23:13:16.149Z,24.61
2023-03-27T23:15:30.092Z,24.5
2023-03-27T23:17:35.681Z,24.41
2023-03-27T23:19:40.962Z,24.29
2023-03-27T23:21:45.995Z,24.29
2023-03-27T23:23:51.037Z,24.28
2023-03-27T23:25:56.541Z,24.23
2023-03-27T23:28:02.615Z,24.16
2023-03-27T23:30:07.653Z,24.11
2023-03-27T23:32:12.754Z,24.06
2023-03-27T23:34:17.998Z,24.03
2023-03-27T23:36:23.024Z,24.01
2023-03-27T23:38:28.056Z,23.96
2023-03-27T23:40:34.648Z,23.94
2023-03-27T23:42:39.773Z,23.92
2023-03-27T23:44:45.014Z,23.91
2023-03-27T23:46:50.070Z,23.88
2023-03-27T23:48:55.206Z,23.86
2023-03-27T23:51:00.270Z,23.83
2023-03-27T23:53:05.317Z,23.82
2023-03-27T23:55:10.388Z,23.79
2023-03-27T23:57:15.402Z,23.77
2023-03-27T23:59:20.644Z,23.76
